sensor_id;sensor_type;location;lat;lon;timestamp;P1;durP1;ratioP1;P2;durP2;ratioP2
80576;SDS011;69937;52.420;10.538;2023-07-28T00:00:10;12.55;;;5.38;;
80576;SDS011;69937;52.420;10.538;2023-07-28T00:05:11;7.57;;;6.13;;
80576;SDS011;69937;52.420;10.538;2023-07-28T00:10:12;11.85;;;5.70;;
80576;SDS011;69937;52.420;10.538;2023-07-28T00:15:12;6.75;;;5.18;;
80576;SDS011;69937;52.420;10.538;2023-07-28T00:20:13;7.55;;;5.40;;
80576;SDS011;69937;52.420;10.538;2023-07-28T00:25:13;6.63;;;5.22;;
80576;SDS011;69937;52.420;10.538;2023-07-28T00:30:14;6.90;;;4.90;;
80576;SDS011;69937;52.420;10.538;2023-07-28T00:35:14;6.63;;;4.00;;
80576;SDS011;69937;52.420;10.538;2023-07-28T00:40:15;5.57;;;4.82;;
80576;SDS011;69937;52.420;10.538;2023-07-28T00:45:15;7.13;;;4.28;;
80576;SDS011;69937;52.420;10.538;2023-07-28T00:50:16;5.38;;;4.45;;
80576;SDS011;69937;52.420;10.538;2023-07-28T00:55:17;4.57;;;3.95;;
80576;SDS011;69937;52.420;10.538;2023-07-28T01:00:18;6.50;;;3.80;;
80576;SDS011;69937;52.420;10.538;2023-07-28T01:05:20;4.45;;;4.05;;
80576;SDS011;69937;52.420;10.538;2023-07-28T01:10:26;7.55;;;4.30;;
80576;SDS011;69937;52.420;10.538;2023-07-28T01:15:30;5.22;;;4.10;;
80576;SDS011;69937;52.420;10.538;2023-07-28T01:20:31;4.55;;;3.25;;
80576;SDS011;69937;52.420;10.538;2023-07-28T01:25:48;7.28;;;4.45;;
80576;SDS011;69937;52.420;10.538;2023-07-28T01:31:05;5.50;;;3.83;;
80576;SDS011;69937;52.420;10.538;2023-07-28T01:36:06;4.47;;;4.03;;
80576;SDS011;69937;52.420;10.538;2023-07-28T01:41:06;4.72;;;3.67;;
80576;SDS011;69937;52.420;10.538;2023-07-28T01:46:07;4.75;;;3.65;;
80576;SDS011;69937;52.420;10.538;2023-07-28T01:51:08;4.45;;;3.60;;
80576;SDS011;69937;52.420;10.538;2023-07-28T01:56:08;6.07;;;4.22;;
80576;SDS011;69937;52.420;10.538;2023-07-28T02:01:09;4.30;;;3.78;;
80576;SDS011;69937;52.420;10.538;2023-07-28T02:06:09;7.03;;;4.05;;
80576;SDS011;69937;52.420;10.538;2023-07-28T02:11:10;5.13;;;4.03;;
80576;SDS011;69937;52.420;10.538;2023-07-28T02:16:10;4.60;;;3.97;;
80576;SDS011;69937;52.420;10.538;2023-07-28T02:21:11;7.20;;;3.60;;
80576;SDS011;69937;52.420;10.538;2023-07-28T02:26:11;7.88;;;3.78;;
80576;SDS011;69937;52.420;10.538;2023-07-28T02:31:12;5.10;;;3.58;;
80576;SDS011;69937;52.420;10.538;2023-07-28T02:36:12;5.72;;;3.58;;
80576;SDS011;69937;52.420;10.538;2023-07-28T02:41:12;2.92;;;2.47;;
80576;SDS011;69937;52.420;10.538;2023-07-28T02:46:13;4.25;;;3.28;;
80576;SDS011;69937;52.420;10.538;2023-07-28T02:51:14;3.75;;;2.83;;
80576;SDS011;69937;52.420;10.538;2023-07-28T02:56:14;10.63;;;3.60;;
80576;SDS011;69937;52.420;10.538;2023-07-28T03:01:15;5.65;;;3.25;;
80576;SDS011;69937;52.420;10.538;2023-07-28T03:06:15;3.67;;;2.95;;
80576;SDS011;69937;52.420;10.538;2023-07-28T03:11:16;3.13;;;2.25;;
80576;SDS011;69937;52.420;10.538;2023-07-28T03:16:16;9.80;;;3.40;;
80576;SDS011;69937;52.420;10.538;2023-07-28T03:21:17;5.18;;;2.75;;
80576;SDS011;69937;52.420;10.538;2023-07-28T03:26:17;3.47;;;2.90;;
80576;SDS011;69937;52.420;10.538;2023-07-28T03:31:18;3.20;;;2.90;;
80576;SDS011;69937;52.420;10.538;2023-07-28T03:36:18;6.57;;;3.05;;
80576;SDS011;69937;52.420;10.538;2023-07-28T03:41:19;4.57;;;2.72;;
80576;SDS011;69937;52.420;10.538;2023-07-28T03:46:20;7.05;;;3.10;;
80576;SDS011;69937;52.420;10.538;2023-07-28T03:51:21;4.15;;;3.00;;
80576;SDS011;69937;52.420;10.538;2023-07-28T03:56:21;2.80;;;1.83;;
80576;SDS011;69937;52.420;10.538;2023-07-28T04:01:22;2.80;;;2.50;;
80576;SDS011;69937;52.420;10.538;2023-07-28T04:06:39;2.80;;;2.17;;
80576;SDS011;69937;52.420;10.538;2023-07-28T04:11:41;2.20;;;1.65;;
80576;SDS011;69937;52.420;10.538;2023-07-28T04:16:42;3.17;;;2.45;;
80576;SDS011;69937;52.420;10.538;2023-07-28T04:21:43;3.00;;;2.17;;
80576;SDS011;69937;52.420;10.538;2023-07-28T04:26:43;2.42;;;1.70;;
80576;SDS011;69937;52.420;10.538;2023-07-28T04:31:44;4.90;;;2.00;;
80576;SDS011;69937;52.420;10.538;2023-07-28T04:36:44;3.60;;;2.08;;
80576;SDS011;69937;52.420;10.538;2023-07-28T04:41:45;3.20;;;2.00;;
80576;SDS011;69937;52.420;10.538;2023-07-28T04:46:45;2.38;;;1.90;;
80576;SDS011;69937;52.420;10.538;2023-07-28T04:51:48;2.25;;;1.73;;
80576;SDS011;69937;52.420;10.538;2023-07-28T04:56:49;3.58;;;1.85;;
80576;SDS011;69937;52.420;10.538;2023-07-28T05:01:52;5.63;;;1.83;;
80576;SDS011;69937;52.420;10.538;2023-07-28T05:06:53;2.75;;;1.70;;
80576;SDS011;69937;52.420;10.538;2023-07-28T05:11:54;3.15;;;1.85;;
80576;SDS011;69937;52.420;10.538;2023-07-28T05:16:55;3.45;;;1.60;;
80576;SDS011;69937;52.420;10.538;2023-07-28T05:21:55;3.10;;;1.77;;
80576;SDS011;69937;52.420;10.538;2023-07-28T05:26:56;7.45;;;2.17;;
80576;SDS011;69937;52.420;10.538;2023-07-28T05:31:58;2.45;;;1.77;;
80576;SDS011;69937;52.420;10.538;2023-07-28T05:36:59;1.58;;;1.45;;
80576;SDS011;69937;52.420;10.538;2023-07-28T05:42:00;2.95;;;1.60;;
80576;SDS011;69937;52.420;10.538;2023-07-28T05:47:00;3.25;;;1.48;;
80576;SDS011;69937;52.420;10.538;2023-07-28T05:52:01;3.35;;;1.60;;
80576;SDS011;69937;52.420;10.538;2023-07-28T05:57:01;3.17;;;1.30;;
80576;SDS011;69937;52.420;10.538;2023-07-28T06:02:02;3.63;;;1.52;;
80576;SDS011;69937;52.420;10.538;2023-07-28T06:07:03;2.30;;;1.40;;
80576;SDS011;69937;52.420;10.538;2023-07-28T06:12:04;2.50;;;1.75;;
80576;SDS011;69937;52.420;10.538;2023-07-28T06:17:05;1.95;;;1.60;;
80576;SDS011;69937;52.420;10.538;2023-07-28T06:22:07;2.65;;;2.05;;
80576;SDS011;69937;52.420;10.538;2023-07-28T06:27:07;2.60;;;1.75;;
80576;SDS011;69937;52.420;10.538;2023-07-28T06:32:09;2.42;;;1.73;;
80576;SDS011;69937;52.420;10.538;2023-07-28T06:37:10;3.67;;;1.83;;
80576;SDS011;69937;52.420;10.538;2023-07-28T06:42:10;3.28;;;1.70;;
80576;SDS011;69937;52.420;10.538;2023-07-28T06:47:11;3.65;;;1.75;;
80576;SDS011;69937;52.420;10.538;2023-07-28T06:52:11;2.78;;;1.85;;
80576;SDS011;69937;52.420;10.538;2023-07-28T06:57:12;2.58;;;1.48;;
80576;SDS011;69937;52.420;10.538;2023-07-28T07:02:13;3.70;;;1.80;;
80576;SDS011;69937;52.420;10.538;2023-07-28T07:07:13;2.40;;;1.75;;
80576;SDS011;69937;52.420;10.538;2023-07-28T07:12:14;2.00;;;1.30;;
80576;SDS011;69937;52.420;10.538;2023-07-28T07:17:15;6.28;;;1.92;;
80576;SDS011;69937;52.420;10.538;2023-07-28T07:22:16;2.85;;;1.90;;
80576;SDS011;69937;52.420;10.538;2023-07-28T07:27:16;2.08;;;1.65;;
80576;SDS011;69937;52.420;10.538;2023-07-28T07:32:17;2.53;;;1.63;;
80576;SDS011;69937;52.420;10.538;2023-07-28T07:37:17;2.53;;;1.30;;
80576;SDS011;69937;52.420;10.538;2023-07-28T07:42:18;2.38;;;1.52;;
80576;SDS011;69937;52.420;10.538;2023-07-28T07:47:19;3.05;;;1.88;;
80576;SDS011;69937;52.420;10.538;2023-07-28T07:52:19;1.92;;;1.38;;
80576;SDS011;69937;52.420;10.538;2023-07-28T07:57:20;2.00;;;1.60;;
80576;SDS011;69937;52.420;10.538;2023-07-28T08:02:20;3.05;;;1.50;;
80576;SDS011;69937;52.420;10.538;2023-07-28T08:07:21;2.55;;;1.40;;
80576;SDS011;69937;52.420;10.538;2023-07-28T08:12:23;1.90;;;1.10;;
80576;SDS011;69937;52.420;10.538;2023-07-28T08:17:24;2.92;;;1.35;;
80576;SDS011;69937;52.420;10.538;2023-07-28T08:22:25;3.45;;;1.70;;
80576;SDS011;69937;52.420;10.538;2023-07-28T08:27:25;2.00;;;1.25;;
80576;SDS011;69937;52.420;10.538;2023-07-28T08:32:26;2.60;;;1.83;;
80576;SDS011;69937;52.420;10.538;2023-07-28T08:37:27;5.60;;;1.98;;
80576;SDS011;69937;52.420;10.538;2023-07-28T08:42:29;2.45;;;1.77;;
80576;SDS011;69937;52.420;10.538;2023-07-28T08:47:30;2.47;;;1.70;;
80576;SDS011;69937;52.420;10.538;2023-07-28T08:52:31;3.40;;;2.05;;
80576;SDS011;69937;52.420;10.538;2023-07-28T08:57:32;4.30;;;1.83;;
80576;SDS011;69937;52.420;10.538;2023-07-28T09:02:33;2.95;;;2.20;;
80576;SDS011;69937;52.420;10.538;2023-07-28T09:07:38;3.65;;;1.80;;
80576;SDS011;69937;52.420;10.538;2023-07-28T09:12:46;2.42;;;1.67;;
80576;SDS011;69937;52.420;10.538;2023-07-28T09:17:48;2.45;;;1.80;;
80576;SDS011;69937;52.420;10.538;2023-07-28T09:22:49;2.58;;;1.90;;
80576;SDS011;69937;52.420;10.538;2023-07-28T09:27:51;3.80;;;1.70;;
80576;SDS011;69937;52.420;10.538;2023-07-28T09:32:52;3.25;;;1.90;;
80576;SDS011;69937;52.420;10.538;2023-07-28T09:37:54;3.33;;;1.90;;
80576;SDS011;69937;52.420;10.538;2023-07-28T09:42:56;6.25;;;2.10;;
80576;SDS011;69937;52.420;10.538;2023-07-28T09:47:57;2.83;;;1.90;;
80576;SDS011;69937;52.420;10.538;2023-07-28T09:53:02;2.55;;;1.65;;
80576;SDS011;69937;52.420;10.538;2023-07-28T09:58:04;5.63;;;1.75;;
80576;SDS011;69937;52.420;10.538;2023-07-28T10:03:07;4.63;;;1.92;;
80576;SDS011;69937;52.420;10.538;2023-07-28T10:08:09;3.38;;;1.90;;
80576;SDS011;69937;52.420;10.538;2023-07-28T10:13:18;1.85;;;1.40;;
80576;SDS011;69937;52.420;10.538;2023-07-28T10:18:20;2.58;;;1.50;;
80576;SDS011;69937;52.420;10.538;2023-07-28T10:23:22;4.53;;;1.50;;
80576;SDS011;69937;52.420;10.538;2023-07-28T10:28:31;2.40;;;1.42;;
80576;SDS011;69937;52.420;10.538;2023-07-28T10:33:38;4.05;;;1.35;;
80576;SDS011;69937;52.420;10.538;2023-07-28T10:38:40;2.67;;;1.35;;
80576;SDS011;69937;52.420;10.538;2023-07-28T10:43:44;5.57;;;1.58;;
80576;SDS011;69937;52.420;10.538;2023-07-28T10:48:46;5.05;;;1.33;;
80576;SDS011;69937;52.420;10.538;2023-07-28T10:53:51;3.55;;;0.93;;
80576;SDS011;69937;52.420;10.538;2023-07-28T10:58:58;2.30;;;1.10;;
80576;SDS011;69937;52.420;10.538;2023-07-28T11:09:11;2.53;;;0.90;;
80576;SDS011;69937;52.420;10.538;2023-07-28T11:14:15;1.73;;;1.20;;
80576;SDS011;69937;52.420;10.538;2023-07-28T11:19:17;1.98;;;1.27;;
80576;SDS011;69937;52.420;10.538;2023-07-28T11:24:24;1.95;;;1.17;;
80576;SDS011;69937;52.420;10.538;2023-07-28T11:29:26;1.77;;;1.13;;
80576;SDS011;69937;52.420;10.538;2023-07-28T11:34:27;2.28;;;1.27;;
80576;SDS011;69937;52.420;10.538;2023-07-28T11:39:33;1.95;;;1.00;;
80576;SDS011;69937;52.420;10.538;2023-07-28T11:44:34;1.92;;;1.13;;
80576;SDS011;69937;52.420;10.538;2023-07-28T11:49:36;2.10;;;1.15;;
80576;SDS011;69937;52.420;10.538;2023-07-28T11:54:46;2.17;;;1.63;;
80576;SDS011;69937;52.420;10.538;2023-07-28T11:59:47;3.20;;;1.05;;
80576;SDS011;69937;52.420;10.538;2023-07-28T12:04:48;1.65;;;0.90;;
80576;SDS011;69937;52.420;10.538;2023-07-28T12:09:51;4.32;;;1.15;;
80576;SDS011;69937;52.420;10.538;2023-07-28T12:14:52;1.50;;;1.05;;
80576;SDS011;69937;52.420;10.538;2023-07-28T12:20:00;2.03;;;0.90;;
80576;SDS011;69937;52.420;10.538;2023-07-28T12:25:14;1.83;;;0.90;;
80576;SDS011;69937;52.420;10.538;2023-07-28T12:30:15;1.33;;;0.60;;
80576;SDS011;69937;52.420;10.538;2023-07-28T12:35:16;3.53;;;0.80;;
80576;SDS011;69937;52.420;10.538;2023-07-28T12:40:17;3.53;;;0.90;;
80576;SDS011;69937;52.420;10.538;2023-07-28T12:45:19;2.08;;;0.80;;
80576;SDS011;69937;52.420;10.538;2023-07-28T12:50:20;1.92;;;0.73;;
80576;SDS011;69937;52.420;10.538;2023-07-28T12:55:21;1.73;;;0.80;;
80576;SDS011;69937;52.420;10.538;2023-07-28T13:00:22;1.75;;;0.82;;
80576;SDS011;69937;52.420;10.538;2023-07-28T13:05:23;4.88;;;0.85;;
80576;SDS011;69937;52.420;10.538;2023-07-28T13:10:23;1.42;;;0.70;;
80576;SDS011;69937;52.420;10.538;2023-07-28T13:15:24;1.98;;;0.85;;
80576;SDS011;69937;52.420;10.538;2023-07-28T13:20:24;2.03;;;1.00;;
80576;SDS011;69937;52.420;10.538;2023-07-28T13:25:26;2.47;;;0.85;;
80576;SDS011;69937;52.420;10.538;2023-07-28T13:30:26;1.75;;;0.88;;
80576;SDS011;69937;52.420;10.538;2023-07-28T13:35:27;2.22;;;0.80;;
80576;SDS011;69937;52.420;10.538;2023-07-28T13:40:27;2.85;;;0.77;;
80576;SDS011;69937;52.420;10.538;2023-07-28T13:45:28;2.13;;;0.90;;
80576;SDS011;69937;52.420;10.538;2023-07-28T13:50:28;1.75;;;1.10;;
80576;SDS011;69937;52.420;10.538;2023-07-28T13:55:29;4.63;;;0.82;;
80576;SDS011;69937;52.420;10.538;2023-07-28T14:00:29;2.75;;;0.80;;
80576;SDS011;69937;52.420;10.538;2023-07-28T14:05:30;2.10;;;0.90;;
80576;SDS011;69937;52.420;10.538;2023-07-28T14:10:30;2.47;;;0.90;;
80576;SDS011;69937;52.420;10.538;2023-07-28T14:15:32;2.97;;;1.08;;
80576;SDS011;69937;52.420;10.538;2023-07-28T14:20:33;4.65;;;1.08;;
80576;SDS011;69937;52.420;10.538;2023-07-28T14:25:34;3.08;;;1.25;;
80576;SDS011;69937;52.420;10.538;2023-07-28T14:30:34;3.70;;;1.20;;
80576;SDS011;69937;52.420;10.538;2023-07-28T14:35:35;7.00;;;1.48;;
80576;SDS011;69937;52.420;10.538;2023-07-28T14:40:36;3.58;;;1.33;;
80576;SDS011;69937;52.420;10.538;2023-07-28T14:45:36;3.67;;;1.25;;
80576;SDS011;69937;52.420;10.538;2023-07-28T14:50:37;10.52;;;3.13;;
80576;SDS011;69937;52.420;10.538;2023-07-28T14:55:38;7.40;;;2.10;;
80576;SDS011;69937;52.420;10.538;2023-07-28T15:00:38;8.77;;;2.33;;
80576;SDS011;69937;52.420;10.538;2023-07-28T15:05:39;5.22;;;2.45;;
80576;SDS011;69937;52.420;10.538;2023-07-28T15:10:41;5.07;;;2.30;;
80576;SDS011;69937;52.420;10.538;2023-07-28T15:15:41;2.85;;;1.88;;
80576;SDS011;69937;52.420;10.538;2023-07-28T15:20:42;4.43;;;2.40;;
80576;SDS011;69937;52.420;10.538;2023-07-28T15:25:43;7.55;;;2.03;;
80576;SDS011;69937;52.420;10.538;2023-07-28T15:30:45;4.82;;;2.10;;
80576;SDS011;69937;52.420;10.538;2023-07-28T15:35:51;5.03;;;2.05;;
80576;SDS011;69937;52.420;10.538;2023-07-28T15:40:51;3.25;;;2.00;;
80576;SDS011;69937;52.420;10.538;2023-07-28T15:45:56;4.95;;;2.00;;
80576;SDS011;69937;52.420;10.538;2023-07-28T15:50:57;4.25;;;2.20;;
80576;SDS011;69937;52.420;10.538;2023-07-28T15:55:58;7.90;;;2.20;;
80576;SDS011;69937;52.420;10.538;2023-07-28T16:00:58;5.20;;;2.45;;
80576;SDS011;69937;52.420;10.538;2023-07-28T16:05:59;5.53;;;2.60;;
80576;SDS011;69937;52.420;10.538;2023-07-28T16:11:00;5.15;;;2.90;;
80576;SDS011;69937;52.420;10.538;2023-07-28T16:16:00;5.43;;;2.58;;
80576;SDS011;69937;52.420;10.538;2023-07-28T16:21:01;3.85;;;2.70;;
80576;SDS011;69937;52.420;10.538;2023-07-28T16:26:02;6.15;;;3.35;;
80576;SDS011;69937;52.420;10.538;2023-07-28T16:31:03;5.72;;;3.10;;
80576;SDS011;69937;52.420;10.538;2023-07-28T16:36:03;4.43;;;2.80;;
80576;SDS011;69937;52.420;10.538;2023-07-28T16:41:04;6.55;;;3.40;;
80576;SDS011;69937;52.420;10.538;2023-07-28T16:46:06;4.35;;;3.00;;
80576;SDS011;69937;52.420;10.538;2023-07-28T16:51:07;3.63;;;2.55;;
80576;SDS011;69937;52.420;10.538;2023-07-28T16:56:08;4.22;;;2.72;;
80576;SDS011;69937;52.420;10.538;2023-07-28T17:01:09;4.38;;;2.60;;
80576;SDS011;69937;52.420;10.538;2023-07-28T17:06:09;3.63;;;2.58;;
80576;SDS011;69937;52.420;10.538;2023-07-28T17:11:10;4.30;;;2.42;;
80576;SDS011;69937;52.420;10.538;2023-07-28T17:16:11;3.20;;;2.28;;
80576;SDS011;69937;52.420;10.538;2023-07-28T17:21:11;4.53;;;2.25;;
80576;SDS011;69937;52.420;10.538;2023-07-28T17:26:12;3.45;;;2.08;;
80576;SDS011;69937;52.420;10.538;2023-07-28T17:31:12;6.80;;;2.28;;
80576;SDS011;69937;52.420;10.538;2023-07-28T17:36:13;2.65;;;1.83;;
80576;SDS011;69937;52.420;10.538;2023-07-28T17:41:13;4.15;;;2.03;;
80576;SDS011;69937;52.420;10.538;2023-07-28T17:46:14;3.28;;;2.08;;
80576;SDS011;69937;52.420;10.538;2023-07-28T17:51:15;2.72;;;1.95;;
80576;SDS011;69937;52.420;10.538;2023-07-28T17:56:16;3.22;;;1.92;;
80576;SDS011;69937;52.420;10.538;2023-07-28T18:01:16;3.47;;;1.60;;
80576;SDS011;69937;52.420;10.538;2023-07-28T18:06:17;4.28;;;2.03;;
80576;SDS011;69937;52.420;10.538;2023-07-28T18:11:17;3.60;;;1.95;;
80576;SDS011;69937;52.420;10.538;2023-07-28T18:16:18;6.70;;;2.63;;
80576;SDS011;69937;52.420;10.538;2023-07-28T18:21:19;2.92;;;1.80;;
80576;SDS011;69937;52.420;10.538;2023-07-28T18:26:20;5.28;;;2.30;;
80576;SDS011;69937;52.420;10.538;2023-07-28T18:31:21;5.30;;;2.13;;
80576;SDS011;69937;52.420;10.538;2023-07-28T18:36:21;3.00;;;2.50;;
80576;SDS011;69937;52.420;10.538;2023-07-28T18:41:22;3.50;;;2.47;;
80576;SDS011;69937;52.420;10.538;2023-07-28T18:46:22;4.30;;;3.10;;
80576;SDS011;69937;52.420;10.538;2023-07-28T18:51:23;5.00;;;2.50;;
80576;SDS011;69937;52.420;10.538;2023-07-28T18:56:24;6.32;;;2.42;;
80576;SDS011;69937;52.420;10.538;2023-07-28T19:01:24;4.50;;;2.55;;
80576;SDS011;69937;52.420;10.538;2023-07-28T19:06:25;6.13;;;2.72;;
80576;SDS011;69937;52.420;10.538;2023-07-28T19:11:25;6.18;;;2.45;;
80576;SDS011;69937;52.420;10.538;2023-07-28T19:16:26;3.75;;;3.08;;
80576;SDS011;69937;52.420;10.538;2023-07-28T19:21:26;3.45;;;2.42;;
80576;SDS011;69937;52.420;10.538;2023-07-28T19:26:27;7.03;;;3.30;;
80576;SDS011;69937;52.420;10.538;2023-07-28T19:31:28;5.03;;;3.50;;
80576;SDS011;69937;52.420;10.538;2023-07-28T19:36:29;6.53;;;3.03;;
80576;SDS011;69937;52.420;10.538;2023-07-28T19:41:29;4.65;;;3.00;;
80576;SDS011;69937;52.420;10.538;2023-07-28T19:46:30;5.03;;;3.20;;
80576;SDS011;69937;52.420;10.538;2023-07-28T19:51:31;10.18;;;3.78;;
80576;SDS011;69937;52.420;10.538;2023-07-28T19:56:31;6.60;;;3.58;;
80576;SDS011;69937;52.420;10.538;2023-07-28T20:01:32;5.88;;;3.42;;
80576;SDS011;69937;52.420;10.538;2023-07-28T20:06:32;5.53;;;3.13;;
80576;SDS011;69937;52.420;10.538;2023-07-28T20:11:34;5.30;;;3.60;;
80576;SDS011;69937;52.420;10.538;2023-07-28T20:16:34;6.70;;;3.58;;
80576;SDS011;69937;52.420;10.538;2023-07-28T20:21:35;4.47;;;3.42;;
80576;SDS011;69937;52.420;10.538;2023-07-28T20:26:35;6.93;;;3.85;;
80576;SDS011;69937;52.420;10.538;2023-07-28T20:31:36;6.15;;;4.25;;
80576;SDS011;69937;52.420;10.538;2023-07-28T20:36:36;4.95;;;3.85;;
80576;SDS011;69937;52.420;10.538;2023-07-28T20:41:39;6.10;;;3.78;;
80576;SDS011;69937;52.420;10.538;2023-07-28T20:46:40;4.72;;;3.45;;
80576;SDS011;69937;52.420;10.538;2023-07-28T20:51:40;6.65;;;3.58;;
80576;SDS011;69937;52.420;10.538;2023-07-28T20:56:41;6.90;;;3.72;;
80576;SDS011;69937;52.420;10.538;2023-07-28T21:01:41;5.28;;;3.65;;
80576;SDS011;69937;52.420;10.538;2023-07-28T21:06:42;5.63;;;3.55;;
80576;SDS011;69937;52.420;10.538;2023-07-28T21:11:42;7.72;;;3.47;;
80576;SDS011;69937;52.420;10.538;2023-07-28T21:16:43;5.00;;;2.97;;
80576;SDS011;69937;52.420;10.538;2023-07-28T21:21:43;4.70;;;3.53;;
80576;SDS011;69937;52.420;10.538;2023-07-28T21:26:44;4.75;;;3.58;;
80576;SDS011;69937;52.420;10.538;2023-07-28T21:31:44;5.57;;;3.65;;
80576;SDS011;69937;52.420;10.538;2023-07-28T21:36:45;4.80;;;3.30;;
80576;SDS011;69937;52.420;10.538;2023-07-28T21:41:46;4.63;;;3.33;;
80576;SDS011;69937;52.420;10.538;2023-07-28T21:46:47;5.47;;;3.35;;
80576;SDS011;69937;52.420;10.538;2023-07-28T21:51:48;6.28;;;3.92;;
80576;SDS011;69937;52.420;10.538;2023-07-28T21:56:48;7.55;;;3.35;;
80576;SDS011;69937;52.420;10.538;2023-07-28T22:01:49;6.40;;;3.45;;
80576;SDS011;69937;52.420;10.538;2023-07-28T22:06:49;4.68;;;3.45;;
80576;SDS011;69937;52.420;10.538;2023-07-28T22:11:50;8.18;;;4.10;;
80576;SDS011;69937;52.420;10.538;2023-07-28T22:16:50;5.82;;;4.00;;
80576;SDS011;69937;52.420;10.538;2023-07-28T22:21:51;4.57;;;3.90;;
80576;SDS011;69937;52.420;10.538;2023-07-28T22:26:52;4.57;;;3.78;;
80576;SDS011;69937;52.420;10.538;2023-07-28T22:31:53;5.13;;;3.60;;
80576;SDS011;69937;52.420;10.538;2023-07-28T22:36:54;5.15;;;3.58;;
80576;SDS011;69937;52.420;10.538;2023-07-28T22:41:54;4.68;;;2.90;;
80576;SDS011;69937;52.420;10.538;2023-07-28T22:46:55;5.22;;;3.85;;
80576;SDS011;69937;52.420;10.538;2023-07-28T22:51:55;5.78;;;3.85;;
80576;SDS011;69937;52.420;10.538;2023-07-28T22:56:56;6.30;;;3.95;;
80576;SDS011;69937;52.420;10.538;2023-07-28T23:01:57;8.57;;;3.72;;
80576;SDS011;69937;52.420;10.538;2023-07-28T23:06:57;4.80;;;3.13;;
80576;SDS011;69937;52.420;10.538;2023-07-28T23:11:58;5.00;;;3.42;;
80576;SDS011;69937;52.420;10.538;2023-07-28T23:16:58;5.63;;;3.35;;
80576;SDS011;69937;52.420;10.538;2023-07-28T23:21:59;5.45;;;3.40;;
80576;SDS011;69937;52.420;10.538;2023-07-28T23:27:00;6.72;;;3.33;;
80576;SDS011;69937;52.420;10.538;2023-07-28T23:32:01;4.03;;;3.17;;
80576;SDS011;69937;52.420;10.538;2023-07-28T23:37:01;6.35;;;3.40;;
80576;SDS011;69937;52.420;10.538;2023-07-28T23:42:02;6.10;;;3.50;;
80576;SDS011;69937;52.420;10.538;2023-07-28T23:47:03;7.80;;;3.50;;
80576;SDS011;69937;52.420;10.538;2023-07-28T23:52:04;4.43;;;3.03;;
80576;SDS011;69937;52.420;10.538;2023-07-28T23:57:05;4.60;;;3.13;;
